Time;durP1;ratioP1;P1;durP2;ratioP2;P2;SDS_P1;SDS_P2;PMS_P1;PMS_P2;Temp;Humidity;BMP_temperature;BMP_pressure;BME280_temperature;BME280_humidity;BME280_pressure;Samples;Min_cycle;Max_cycle;Signal;HPM_P1;HPM_P2
2022/03/22 00:02:23;;;;;;;12.90;6.80;;;0.70;83.90;;;;;;4956565;29;20227;-74
2022/03/22 00:04:49;;;;;;;9.87;6.77;;;0.80;83.20;;;;;;4956220;29;20229;-74
2022/03/22 00:07:14;;;;;;;15.63;6.90;;;0.70;83.50;;;;;;4972583;29;20726;-76
2022/03/22 00:09:40;;;;;;;13.10;6.77;;;0.40;85.40;;;;;;4957585;29;20175;-75
2022/03/22 00:12:06;;;;;;;11.37;7.07;;;0.10;86.70;;;;;;4957689;29;20214;-75
2022/03/22 00:22:18;;;;;;;9.50;6.23;;;-0.60;88.30;;;;;;5051981;23;21021;-74
2022/03/22 00:24:43;;;;;;;15.93;6.67;;;-0.60;88.00;;;;;;4936971;29;20471;-73
2022/03/22 00:27:09;;;;;;;12.33;7.67;;;-0.10;85.80;;;;;;4920276;29;20188;-72
2022/03/22 00:29:34;;;;;;;12.13;6.30;;;0.20;84.90;;;;;;4936847;29;20188;-74
2022/03/22 00:32:00;;;;;;;10.00;6.33;;;0.50;83.30;;;;;;4936947;29;20180;-73
2022/03/22 00:34:25;;;;;;;11.77;7.30;;;0.80;82.30;;;;;;4939689;29;20210;-76
2022/03/22 00:36:51;;;;;;;11.10;7.43;;;1.10;80.70;;;;;;4957343;29;20183;-72
2022/03/22 00:39:18;;;;;;;9.73;6.03;;;0.90;81.30;;;;;;4957566;29;20198;-74
2022/03/22 00:41:43;;;;;;;9.30;6.70;;;1.00;80.60;;;;;;4957105;29;20172;-73
2022/03/22 00:51:55;;;;;;;12.60;6.23;;;0.80;81.90;;;;;;4989354;23;20542;-73
2022/03/22 00:54:21;;;;;;;10.40;6.50;;;0.70;82.20;;;;;;4935427;29;20419;-75
2022/03/22 00:56:48;;;;;;;10.70;6.23;;;0.60;82.60;;;;;;4918307;29;20176;-73
2022/03/22 05:00:11;;;;;;;15.55;8.45;;;0.60;81.00;;;;;;6071664;23;20393;-77
2022/03/22 05:02:36;;;;;;;12.00;7.40;;;0.60;81.10;;;;;;4896474;29;20824;-73
2022/03/22 05:05:02;;;;;;;13.40;7.10;;;0.60;80.90;;;;;;4914200;29;20475;-72
2022/03/22 05:07:28;;;;;;;9.43;6.77;;;0.80;80.10;;;;;;4915985;29;20184;-72
2022/03/22 05:09:53;;;;;;;9.30;5.30;;;0.80;80.20;;;;;;4899206;29;20172;-72
2022/03/22 05:12:18;;;;;;;12.23;7.53;;;0.90;79.40;;;;;;4916178;29;20199;-72
2022/03/22 05:14:50;;;;;;;17.83;7.37;;;1.00;79.20;;;;;;4916864;29;20248;-72
2022/03/22 05:17:21;;;;;;;11.03;4.93;;;1.20;78.60;;;;;;4916675;29;20182;-73
2022/03/22 05:19:46;;;;;;;11.17;7.30;;;1.10;79.00;;;;;;4915582;29;20417;-72
2022/03/22 05:35:09;;;;;;;11.83;6.60;;;1.30;78.90;;;;;;5280706;23;20491;-75
2022/03/22 05:37:34;;;;;;;13.93;6.80;;;1.30;79.00;;;;;;4934116;29;20422;-75
2022/03/22 05:40:00;;;;;;;13.50;6.67;;;1.30;78.70;;;;;;4934744;29;20578;-75
2022/03/22 05:42:25;;;;;;;11.40;7.23;;;2.00;77.30;;;;;;4937667;29;20245;-74
2022/03/22 05:44:52;;;;;;;10.77;7.70;;;2.70;76.20;;;;;;4943615;29;20676;-75
2022/03/22 05:47:18;;;;;;;9.40;6.83;;;3.30;74.00;;;;;;4944309;29;20182;-74
2022/03/22 05:49:43;;;;;;;13.03;8.03;;;3.90;72.80;;;;;;4926302;29;20487;-74
2022/03/22 05:52:09;;;;;;;13.00;6.60;;;4.10;71.60;;;;;;4934858;29;20298;-74
2022/03/22 05:54:34;;;;;;;13.33;8.30;;;4.30;71.70;;;;;;4934812;29;20696;-75
2022/03/22 05:57:00;;;;;;;14.23;7.83;;;4.80;70.30;;;;;;4934681;29;20253;-74
2022/03/22 05:59:26;;;;;;;18.80;9.27;;;4.90;70.20;;;;;;4933924;29;20270;-74
2022/03/22 06:14:37;;;;;;;12.67;8.00;;;7.10;64.90;;;;;;5869489;23;20487;-73
2022/03/22 06:17:02;;;;;;;13.13;7.53;;;7.10;64.90;;;;;;4975038;28;20794;-74
2022/03/22 06:19:28;;;;;;;17.10;10.10;;;7.40;64.40;;;;;;4976315;28;20279;-74
2022/03/22 06:21:53;;;;;;;13.90;10.67;;;7.60;63.30;;;;;;4963016;28;20716;-74
2022/03/22 06:24:19;;;;;;;17.40;12.07;;;7.90;62.80;;;;;;4957406;29;20207;-74
2022/03/22 06:26:44;;;;;;;29.43;16.23;;;8.00;62.70;;;;;;4957458;29;20198;-73
2022/03/22 06:29:10;;;;;;;23.00;14.83;;;8.10;62.00;;;;;;4957989;29;20290;-75
2022/03/22 06:34:09;;;;;;;16.17;11.00;;;7.80;62.30;;;;;;4974309;28;20194;-73
2022/03/22 06:36:34;;;;;;;13.90;9.90;;;7.90;62.70;;;;;;4973605;28;20421;-73
2022/03/22 06:38:59;;;;;;;14.93;9.87;;;8.60;61.80;;;;;;4961869;28;20244;-72
2022/03/22 06:41:25;;;;;;;10.40;7.43;;;8.90;61.70;;;;;;4966291;28;20725;-73
2022/03/22 06:43:50;;;;;;;14.27;7.97;;;9.40;60.60;;;;;;4957353;29;20210;-72
2022/03/22 06:46:16;;;;;;;11.13;8.20;;;10.10;59.40;;;;;;4957274;29;20226;-73
2022/03/22 06:48:42;;;;;;;12.23;7.80;;;9.70;59.60;;;;;;4956978;29;20179;-72
2022/03/22 06:51:08;;;;;;;13.17;7.80;;;9.90;59.70;;;;;;4955706;28;20199;-73
2022/03/22 06:53:33;;;;;;;10.53;7.60;;;10.10;59.20;;;;;;4956556;29;20419;-72
2022/03/22 06:55:59;;;;;;;14.33;8.73;;;10.10;58.20;;;;;;4957070;29;20538;-73
2022/03/22 06:58:26;;;;;;;12.43;8.07;;;10.20;58.50;;;;;;4956777;29;20183;-73
2022/03/22 07:00:55;;;;;;;9.00;7.30;;;10.80;58.10;;;;;;4956913;29;20191;-73
2022/03/22 07:03:20;;;;;;;22.57;12.00;;;11.60;57.00;;;;;;4962729;29;20407;-74
2022/03/22 07:05:46;;;;;;;12.60;7.73;;;13.00;54.10;;;;;;4946810;29;20426;-74
2022/03/22 07:08:12;;;;;;;11.10;7.30;;;13.20;53.20;;;;;;4937022;29;20195;-74
2022/03/22 07:10:38;;;;;;;11.07;8.20;;;12.70;54.10;;;;;;4937538;29;20196;-74
2022/03/22 07:13:08;;;;;;;10.40;8.17;;;13.30;53.20;;;;;;4937490;29;20419;-74
2022/03/22 07:15:35;;;;;;;11.47;7.63;;;13.70;51.80;;;;;;4937475;29;20172;-74
2022/03/22 07:18:02;;;;;;;13.73;7.50;;;14.10;51.50;;;;;;4936848;29;20470;-75
2022/03/22 07:20:28;;;;;;;12.33;8.33;;;14.50;50.20;;;;;;4937394;29;20824;-74
2022/03/22 07:22:54;;;;;;;19.73;8.97;;;13.70;50.70;;;;;;4937506;29;20416;-74
2022/03/22 07:25:20;;;;;;;19.07;7.60;;;14.20;52.00;;;;;;4937124;29;20451;-74
2022/03/22 07:27:46;;;;;;;12.37;8.03;;;15.10;49.80;;;;;;4962026;28;20241;-74
2022/03/22 07:30:12;;;;;;;11.33;8.27;;;15.70;49.00;;;;;;4958220;28;20421;-75
2022/03/22 07:32:39;;;;;;;13.17;8.67;;;15.60;48.50;;;;;;4957974;28;21006;-75
2022/03/22 07:35:06;;;;;;;10.33;7.57;;;15.20;49.50;;;;;;4975554;28;20652;-75
2022/03/22 07:37:32;;;;;;;11.53;8.07;;;14.30;49.50;;;;;;4975785;28;20456;-75
2022/03/22 07:39:58;;;;;;;9.93;7.50;;;14.20;50.80;;;;;;4975732;28;20449;-75
2022/03/22 07:42:29;;;;;;;11.10;7.63;;;14.90;50.30;;;;;;4975287;28;20206;-75
2022/03/22 07:44:56;;;;;;;14.47;8.17;;;15.10;49.50;;;;;;4977277;28;20525;-74
2022/03/22 07:47:22;;;;;;;9.57;7.20;;;15.00;50.00;;;;;;4978895;28;20414;-74
2022/03/22 07:55:18;;;;;;;10.50;6.80;;;13.90;50.10;;;;;;4975744;28;20464;-72
2022/03/22 07:57:44;;;;;;;9.27;6.30;;;13.60;50.60;;;;;;4974977;28;20824;-73
2022/03/22 08:00:10;;;;;;;8.60;7.10;;;13.80;50.80;;;;;;4975239;28;20249;-72
2022/03/22 08:02:36;;;;;;;10.90;7.20;;;14.20;50.70;;;;;;4975324;28;20178;-73
2022/03/22 08:05:04;;;;;;;11.73;6.97;;;14.30;50.30;;;;;;4976070;28;20187;-72
2022/03/22 08:07:30;;;;;;;10.80;7.60;;;14.00;50.50;;;;;;4981372;28;20413;-72
2022/03/22 08:09:56;;;;;;;16.67;7.13;;;13.20;51.30;;;;;;4957814;28;20425;-73
2022/03/22 08:12:22;;;;;;;10.10;6.30;;;12.90;52.10;;;;;;4974754;28;20438;-73
2022/03/22 08:14:47;;;;;;;7.90;6.57;;;13.40;53.20;;;;;;4974864;28;20257;-74
2022/03/22 08:17:13;;;;;;;9.67;6.80;;;12.70;53.10;;;;;;4975015;28;20257;-72
2022/03/22 08:19:39;;;;;;;9.30;7.20;;;12.50;53.10;;;;;;4975120;28;20170;-72
2022/03/22 08:22:05;;;;;;;9.77;6.33;;;12.10;52.70;;;;;;4974875;28;20198;-72
2022/03/22 08:24:31;;;;;;;7.67;6.40;;;11.60;52.50;;;;;;4974853;28;20202;-72
2022/03/22 08:26:56;;;;;;;10.37;6.57;;;11.00;53.00;;;;;;4974801;28;20416;-72
2022/03/22 08:29:22;;;;;;;9.80;6.60;;;10.40;53.50;;;;;;4974555;28;20178;-72
2022/03/22 08:31:47;;;;;;;10.43;6.57;;;10.30;54.70;;;;;;4957461;28;20205;-71
2022/03/22 08:34:13;;;;;;;6.73;5.77;;;10.30;54.80;;;;;;4974880;28;20193;-72
2022/03/22 08:36:38;;;;;;;8.70;5.90;;;10.50;55.30;;;;;;4974479;28;20182;-72
2022/03/22 08:39:04;;;;;;;10.40;6.57;;;11.00;54.00;;;;;;4973174;28;20186;-74
2022/03/22 08:41:31;;;;;;;9.43;6.70;;;12.00;53.70;;;;;;4974647;28;20191;-72
2022/03/22 08:43:57;;;;;;;7.77;6.30;;;12.30;51.80;;;;;;4974575;28;20277;-72
2022/03/22 08:46:24;;;;;;;8.50;5.93;;;12.90;50.70;;;;;;4974634;28;20785;-73
2022/03/22 08:48:51;;;;;;;10.47;7.27;;;14.10;50.00;;;;;;4974287;28;20167;-72
2022/03/22 08:51:18;;;;;;;10.73;5.93;;;14.20;48.60;;;;;;4974188;28;20421;-73
2022/03/22 08:53:44;;;;;;;9.87;6.80;;;14.10;48.60;;;;;;4974137;28;20441;-72
2022/03/22 08:56:11;;;;;;;7.30;6.07;;;14.80;48.50;;;;;;4974206;28;20449;-72
2022/03/22 08:58:37;;;;;;;9.70;6.47;;;14.70;46.40;;;;;;4973763;28;20624;-72
2022/03/22 09:01:02;;;;;;;8.37;5.77;;;14.40;47.50;;;;;;4973857;28;20437;-75
2022/03/22 09:03:31;;;;;;;9.10;6.00;;;14.20;47.70;;;;;;4973944;28;20401;-72
2022/03/22 09:06:10;;;;;;;7.70;6.07;;;14.00;47.30;;;;;;4973958;28;20190;-72
2022/03/22 09:08:36;;;;;;;6.70;4.90;;;14.20;47.90;;;;;;4973761;28;20406;-72
2022/03/22 09:11:09;;;;;;;8.03;5.50;;;14.40;45.90;;;;;;5115915;27;20941;-73
2022/03/22 09:13:35;;;;;;;7.90;5.70;;;14.70;46.00;;;;;;5110260;28;20912;-72
2022/03/22 09:16:01;;;;;;;7.40;5.33;;;14.70;46.60;;;;;;5110046;28;20412;-73
2022/03/22 09:18:26;;;;;;;14.97;5.80;;;14.80;47.30;;;;;;5109802;28;20391;-73
2022/03/22 09:20:52;;;;;;;15.70;5.73;;;14.90;45.60;;;;;;5109801;28;20230;-73
2022/03/22 09:23:19;;;;;;;6.53;5.50;;;15.10;45.50;;;;;;5109865;28;20173;-73
2022/03/22 09:25:45;;;;;;;8.33;5.50;;;15.50;45.80;;;;;;5109863;28;20396;-73
2022/03/22 09:28:11;;;;;;;6.07;5.40;;;16.10;44.80;;;;;;5109481;28;20396;-74
2022/03/22 09:30:38;;;;;;;12.73;6.27;;;15.80;44.50;;;;;;5109561;28;20202;-74
2022/03/22 09:33:07;;;;;;;20.10;6.30;;;16.40;46.70;;;;;;5109620;28;20408;-74
2022/03/22 09:35:34;;;;;;;9.63;5.97;;;17.00;43.30;;;;;;5109643;28;20400;-73
2022/03/22 09:37:59;;;;;;;7.57;5.37;;;16.40;44.70;;;;;;5109186;28;20765;-73
2022/03/22 09:40:26;;;;;;;7.50;5.60;;;16.50;44.80;;;;;;5109386;28;20403;-74
2022/03/22 09:42:54;;;;;;;10.67;6.30;;;15.40;44.40;;;;;;5109341;28;20202;-73
2022/03/22 09:45:27;;;;;;;10.50;6.00;;;14.80;45.00;;;;;;5109394;28;20399;-73
2022/03/22 09:47:53;;;;;;;8.50;5.20;;;15.60;46.50;;;;;;5109080;28;20797;-73
2022/03/22 09:50:20;;;;;;;10.50;5.80;;;15.30;45.40;;;;;;5109168;28;20447;-73
2022/03/22 09:52:46;;;;;;;10.10;6.73;;;15.20;45.20;;;;;;5109263;28;20906;-73
2022/03/22 09:55:16;;;;;;;9.63;6.30;;;14.80;46.70;;;;;;5109066;28;20442;-74
2022/03/22 09:57:42;;;;;;;6.50;5.33;;;15.50;46.70;;;;;;5109010;28;20407;-73
2022/03/22 10:00:09;;;;;;;8.00;5.50;;;15.80;46.30;;;;;;5109142;28;20452;-73
2022/03/22 10:02:35;;;;;;;8.67;5.63;;;15.80;44.40;;;;;;5109050;28;20169;-73
2022/03/22 10:05:02;;;;;;;7.17;5.60;;;16.00;47.60;;;;;;5108977;28;20404;-73
2022/03/22 10:07:28;;;;;;;11.10;5.80;;;15.30;46.00;;;;;;5108786;28;20178;-73
2022/03/22 10:09:55;;;;;;;7.97;5.70;;;15.50;46.10;;;;;;5108629;28;20458;-73
2022/03/22 10:12:35;;;;;;;6.17;5.47;;;15.70;46.00;;;;;;5109599;28;20189;-73
2022/03/22 10:15:15;;;;;;;8.30;6.20;;;15.60;45.50;;;;;;5111212;28;20498;-73
2022/03/22 10:17:43;;;;;;;7.60;5.90;;;15.20;48.10;;;;;;5108595;28;20462;-74
2022/03/22 10:20:19;;;;;;;8.33;5.83;;;14.90;46.10;;;;;;5108976;28;20822;-74
2022/03/22 10:22:45;;;;;;;9.60;5.87;;;14.40;45.50;;;;;;5094793;28;20436;-74
2022/03/22 10:25:10;;;;;;;10.90;6.20;;;13.80;47.80;;;;;;5095006;28;20435;-74
2022/03/22 10:27:37;;;;;;;10.10;5.57;;;14.00;49.10;;;;;;5094904;28;20281;-74
2022/03/22 10:30:06;;;;;;;8.60;6.27;;;14.30;48.20;;;;;;5095019;28;20665;-73
2022/03/22 10:32:44;;;;;;;8.60;6.27;;;14.20;48.70;;;;;;5093743;28;20432;-74
2022/03/22 10:35:16;;;;;;;10.30;6.43;;;14.60;48.80;;;;;;5095200;28;20407;-74
2022/03/22 10:37:47;;;;;;;9.70;6.10;;;14.70;50.20;;;;;;5094651;28;20401;-74
2022/03/22 10:40:30;;;;;;;9.53;6.60;;;14.60;47.50;;;;;;5093351;28;20416;-73
2022/03/22 10:43:03;;;;;;;8.07;6.00;;;14.00;48.40;;;;;;5094953;28;20750;-74
2022/03/22 10:45:30;;;;;;;10.50;6.13;;;14.50;48.60;;;;;;5094657;28;20501;-74
2022/03/22 10:47:57;;;;;;;11.50;6.27;;;14.60;47.50;;;;;;5094432;28;20408;-74
2022/03/22 10:50:24;;;;;;;9.70;6.40;;;14.50;47.40;;;;;;5094329;28;20553;-74
2022/03/22 10:52:57;;;;;;;11.13;6.03;;;14.60;47.50;;;;;;5093189;28;20416;-74
2022/03/22 10:55:27;;;;;;;9.97;5.90;;;14.80;46.50;;;;;;5094364;28;20411;-74
2022/03/22 10:57:55;;;;;;;11.10;7.27;;;14.80;47.80;;;;;;5094232;28;20404;-74
2022/03/22 11:00:22;;;;;;;15.87;10.13;;;14.60;46.90;;;;;;5094174;28;20412;-74
2022/03/22 11:02:50;;;;;;;10.00;6.33;;;14.80;47.40;;;;;;5094473;28;20408;-74
2022/03/22 11:05:18;;;;;;;12.43;7.10;;;15.20;47.30;;;;;;5094297;28;20520;-74
2022/03/22 11:07:45;;;;;;;13.50;6.97;;;14.90;47.20;;;;;;5093951;28;20418;-74
2022/03/22 11:10:11;;;;;;;8.93;6.03;;;14.90;48.20;;;;;;5093846;28;20470;-74
2022/03/22 11:12:38;;;;;;;9.70;7.30;;;14.80;48.90;;;;;;5092767;28;20855;-75
2022/03/22 11:15:05;;;;;;;9.40;6.47;;;15.10;48.20;;;;;;5082727;28;20221;-75
2022/03/22 11:17:34;;;;;;;7.67;5.40;;;15.30;47.10;;;;;;5085688;28;20440;-75
2022/03/22 11:20:01;;;;;;;7.70;5.80;;;15.40;47.20;;;;;;5107983;28;21062;-74
2022/03/22 11:22:28;;;;;;;13.63;6.70;;;15.20;48.00;;;;;;5097775;28;20464;-74
2022/03/22 11:25:10;;;;;;;8.03;6.20;;;15.00;47.40;;;;;;5094469;28;20405;-74
2022/03/22 11:27:36;;;;;;;8.90;6.37;;;14.80;47.00;;;;;;5094042;28;20397;-73
2022/03/22 11:30:06;;;;;;;8.53;6.47;;;14.70;46.80;;;;;;5094008;28;20448;-74
2022/03/22 11:35:18;;;;;;;7.93;5.77;;;15.20;48.00;;;;;;5074237;28;20428;-74
2022/03/22 11:38:00;;;;;;;7.73;6.23;;;15.20;46.30;;;;;;5072249;28;20418;-73
2022/03/22 11:43:11;;;;;;;7.63;4.73;;;15.30;46.30;;;;;;5073489;28;20412;-74
2022/03/22 11:45:46;;;;;;;7.50;6.10;;;15.00;45.40;;;;;;5072830;28;20484;-73
2022/03/22 11:48:12;;;;;;;8.23;5.80;;;14.80;45.60;;;;;;5072969;28;20476;-73
2022/03/22 11:50:37;;;;;;;6.23;4.90;;;14.80;45.30;;;;;;5073035;28;20850;-73
2022/03/22 11:53:03;;;;;;;12.20;6.20;;;14.60;44.80;;;;;;5073090;28;20199;-73
2022/03/22 11:55:30;;;;;;;10.60;5.40;;;14.50;45.30;;;;;;5072867;28;20182;-73
2022/03/22 11:58:05;;;;;;;6.10;5.27;;;14.40;46.40;;;;;;5073106;28;20170;-73
2022/03/22 12:00:43;;;;;;;8.43;5.17;;;14.90;48.00;;;;;;5073038;28;20496;-73
2022/03/22 12:03:14;;;;;;;10.57;5.53;;;15.30;46.60;;;;;;5073030;28;20409;-73
2022/03/22 12:05:40;;;;;;;5.93;5.20;;;15.50;47.40;;;;;;5072776;28;20420;-73
2022/03/22 12:08:16;;;;;;;8.13;5.70;;;15.20;45.10;;;;;;5072381;28;20413;-73
2022/03/22 12:10:53;;;;;;;6.67;5.17;;;15.40;47.60;;;;;;5089100;28;20620;-73
2022/03/22 12:13:19;;;;;;;9.63;5.03;;;15.20;45.50;;;;;;5093074;28;20427;-73
2022/03/22 12:15:45;;;;;;;16.20;5.80;;;15.10;45.60;;;;;;5092951;28;20400;-73
2022/03/22 12:18:11;;;;;;;11.50;5.37;;;14.90;45.90;;;;;;5092661;28;20412;-73
2022/03/22 12:20:38;;;;;;;10.10;6.80;;;15.20;45.70;;;;;;5092750;28;20511;-73
2022/03/22 12:23:06;;;;;;;10.60;6.13;;;15.20;45.80;;;;;;5092814;28;20404;-73
2022/03/22 12:25:34;;;;;;;17.63;6.00;;;15.10;46.40;;;;;;5092758;28;20978;-73
2022/03/22 12:28:01;;;;;;;8.30;5.97;;;15.10;47.40;;;;;;5092580;28;20419;-73
2022/03/22 12:40:40;;;;;;;9.00;7.10;;;15.40;47.70;;;;;;5055091;28;20500;-74
2022/03/22 12:43:11;;;;;;;12.50;7.70;;;15.90;47.20;;;;;;5072235;28;20405;-73
2022/03/22 12:45:42;;;;;;;9.00;5.97;;;15.90;47.20;;;;;;5071948;28;20167;-74
2022/03/22 12:48:07;;;;;;;10.53;7.67;;;15.30;46.50;;;;;;5072163;28;20402;-74
2022/03/22 12:50:33;;;;;;;10.73;8.80;;;15.20;48.70;;;;;;5072185;28;20486;-74
2022/03/22 12:52:58;;;;;;;7.60;6.00;;;15.50;48.70;;;;;;5072246;28;20198;-73
2022/03/22 12:55:27;;;;;;;9.53;5.93;;;15.20;46.10;;;;;;5072401;28;20540;-73
2022/03/22 12:57:56;;;;;;;13.00;8.60;;;15.10;46.30;;;;;;5071791;28;20216;-73
2022/03/22 13:00:31;;;;;;;12.47;7.50;;;15.00;47.30;;;;;;5072387;28;20405;-74
2022/03/22 13:03:12;;;;;;;9.33;7.40;;;15.00;47.00;;;;;;5072239;28;20948;-73
2022/03/22 13:05:48;;;;;;;18.63;10.57;;;15.00;47.40;;;;;;5072348;28;20413;-73
2022/03/22 13:08:21;;;;;;;18.33;8.97;;;15.30;47.50;;;;;;5071921;28;20412;-73
2022/03/22 13:16:29;;;;;;;13.80;8.13;;;15.60;48.20;;;;;;5072526;28;20470;-74
2022/03/22 13:18:59;;;;;;;18.90;7.63;;;15.20;46.60;;;;;;5078402;28;20420;-73
2022/03/22 13:21:26;;;;;;;14.93;8.70;;;14.70;46.40;;;;;;5095805;28;20421;-73
2022/03/22 13:24:06;;;;;;;8.80;7.67;;;14.90;47.10;;;;;;5097602;28;20405;-71
2022/03/22 13:26:32;;;;;;;17.33;8.37;;;15.10;47.60;;;;;;5097544;28;20413;-71
2022/03/22 13:28:58;;;;;;;12.50;8.63;;;15.60;47.30;;;;;;5083679;28;20504;-73
2022/03/22 13:31:27;;;;;;;16.17;8.90;;;15.80;48.60;;;;;;5073476;28;20429;-73
2022/03/22 13:33:55;;;;;;;10.87;8.93;;;16.10;48.60;;;;;;5074579;28;20409;-73
2022/03/22 13:36:21;;;;;;;16.70;9.00;;;15.70;48.70;;;;;;5067440;28;20896;-73
2022/03/22 13:38:52;;;;;;;14.53;9.63;;;15.70;48.10;;;;;;5071663;28;20550;-73
2022/03/22 13:41:29;;;;;;;10.80;8.13;;;15.70;48.90;;;;;;5071746;28;21008;-73
2022/03/22 13:43:54;;;;;;;16.23;9.70;;;15.50;49.00;;;;;;5071788;28;20450;-72
2022/03/22 13:46:20;;;;;;;15.43;9.13;;;15.60;49.00;;;;;;5071733;28;20405;-72
2022/03/22 13:48:53;;;;;;;11.63;9.87;;;15.40;50.40;;;;;;5071757;28;20180;-73
2022/03/22 13:51:20;;;;;;;12.67;8.20;;;15.30;50.50;;;;;;5073019;28;20498;-73
2022/03/22 13:53:47;;;;;;;14.47;9.43;;;15.50;49.20;;;;;;5071563;28;20401;-73
2022/03/22 13:56:14;;;;;;;12.47;9.80;;;15.60;51.00;;;;;;5072534;28;20408;-73
2022/03/22 13:58:45;;;;;;;21.00;9.80;;;15.80;49.60;;;;;;5074777;28;20462;-72
2022/03/22 14:01:13;;;;;;;13.93;8.23;;;15.50;49.90;;;;;;5075140;28;20428;-73
2022/03/22 14:03:40;;;;;;;13.63;9.20;;;15.30;48.40;;;;;;5073711;28;20397;-73
2022/03/22 14:06:05;;;;;;;10.93;9.03;;;15.00;49.20;;;;;;5073493;28;20405;-73
2022/03/22 14:08:31;;;;;;;23.43;9.53;;;15.20;50.30;;;;;;5056934;28;20439;-73
2022/03/22 14:10:58;;;;;;;13.33;9.20;;;15.10;50.20;;;;;;5075293;28;20225;-73
2022/03/22 14:13:26;;;;;;;14.17;8.90;;;15.30;50.10;;;;;;5074044;28;20452;-73
2022/03/22 14:15:52;;;;;;;11.83;8.80;;;15.40;50.10;;;;;;5073257;28;20417;-72
2022/03/22 14:18:21;;;;;;;9.93;8.50;;;15.60;50.00;;;;;;5074165;28;20428;-72
2022/03/22 14:20:48;;;;;;;16.13;9.50;;;15.80;49.00;;;;;;5074189;28;20191;-71
2022/03/22 14:23:13;;;;;;;15.73;8.83;;;15.70;50.70;;;;;;5073976;28;20421;-71
2022/03/22 14:25:39;;;;;;;14.20;9.30;;;16.10;50.70;;;;;;5073555;28;20452;-71
2022/03/22 14:28:06;;;;;;;12.13;9.40;;;16.40;49.00;;;;;;5070335;28;20424;-72
2022/03/22 14:30:34;;;;;;;12.37;8.70;;;16.50;48.40;;;;;;5074079;28;20202;-73
2022/03/22 14:33:02;;;;;;;11.23;8.97;;;16.10;49.50;;;;;;5074669;28;20428;-72
2022/03/22 14:35:49;;;;;;;13.17;8.60;;;16.40;49.30;;;;;;5074200;28;20421;-72
2022/03/22 14:38:15;;;;;;;16.10;9.40;;;16.20;49.10;;;;;;5074276;28;20412;-72
2022/03/22 14:40:42;;;;;;;23.93;9.33;;;16.30;48.40;;;;;;5074622;28;20498;-72
2022/03/22 14:43:10;;;;;;;18.27;9.93;;;16.30;48.50;;;;;;5074505;28;20409;-72
2022/03/22 14:45:38;;;;;;;13.20;9.20;;;15.80;48.70;;;;;;5056118;28;20507;-72
2022/03/22 14:48:04;;;;;;;13.27;9.40;;;15.70;48.80;;;;;;5074078;28;20409;-72
2022/03/22 14:50:29;;;;;;;11.87;9.33;;;15.90;48.30;;;;;;5074088;28;20460;-72
2022/03/22 14:55:40;;;;;;;11.80;9.40;;;15.60;48.30;;;;;;5074381;28;20244;-72
2022/03/22 15:00:53;;;;;;;13.57;8.83;;;15.30;48.50;;;;;;5074151;28;20951;-72
2022/03/22 15:03:22;;;;;;;11.30;8.63;;;15.30;48.90;;;;;;5074139;28;20470;-72
2022/03/22 15:05:52;;;;;;;12.97;9.00;;;15.20;50.00;;;;;;5073721;28;20471;-72
2022/03/22 15:08:20;;;;;;;14.60;9.87;;;15.10;48.80;;;;;;5073305;28;20841;-72
2022/03/22 15:10:47;;;;;;;16.13;8.40;;;15.30;49.80;;;;;;5061286;28;20464;-72
2022/03/22 15:13:13;;;;;;;10.90;8.90;;;15.10;49.10;;;;;;5073965;28;20405;-72
2022/03/22 15:15:40;;;;;;;16.53;8.90;;;15.20;49.30;;;;;;5055933;28;20440;-73
2022/03/22 15:18:07;;;;;;;16.07;10.47;;;15.30;49.30;;;;;;5073568;28;21242;-72
2022/03/22 15:20:36;;;;;;;13.20;9.20;;;15.40;49.10;;;;;;5055558;28;20444;-72
2022/03/22 15:23:04;;;;;;;13.30;8.17;;;15.30;49.00;;;;;;5073768;28;20426;-72
2022/03/22 15:25:30;;;;;;;12.60;8.80;;;15.10;49.50;;;;;;5073667;28;20416;-73
2022/03/22 15:27:55;;;;;;;19.83;9.53;;;15.20;49.70;;;;;;5073352;28;20405;-72
2022/03/22 15:30:21;;;;;;;15.97;9.67;;;15.30;49.80;;;;;;5073443;28;20463;-72
2022/03/22 15:32:47;;;;;;;14.40;9.13;;;15.30;50.20;;;;;;5072903;28;20224;-72
2022/03/22 15:35:14;;;;;;;14.00;8.67;;;15.00;48.80;;;;;;5073438;28;20233;-72
2022/03/22 15:37:41;;;;;;;17.07;9.90;;;15.00;50.00;;;;;;5073185;28;20210;-72
2022/03/22 15:40:08;;;;;;;16.93;9.53;;;15.10;50.80;;;;;;5073198;28;20435;-72
2022/03/22 15:42:34;;;;;;;16.27;9.60;;;15.20;50.00;;;;;;5073174;28;20440;-73
2022/03/22 15:44:59;;;;;;;14.10;9.70;;;15.20;50.70;;;;;;5073316;28;20422;-72
2022/03/22 15:47:25;;;;;;;19.40;9.60;;;15.20;50.50;;;;;;5072982;28;20193;-72
2022/03/22 15:49:50;;;;;;;15.27;9.30;;;15.20;51.80;;;;;;5073076;28;20229;-72
2022/03/22 15:52:16;;;;;;;10.20;8.47;;;15.20;51.80;;;;;;5073098;28;20202;-72
2022/03/22 15:54:41;;;;;;;12.70;9.60;;;15.20;52.50;;;;;;5072885;28;20664;-72
2022/03/22 15:57:07;;;;;;;13.90;9.00;;;15.20;51.90;;;;;;5072540;28;20269;-73
2022/03/22 15:59:32;;;;;;;10.00;8.67;;;15.00;52.10;;;;;;5072810;28;20245;-74
2022/03/22 16:01:58;;;;;;;17.37;9.63;;;14.80;52.70;;;;;;5071109;28;20742;-72
2022/03/22 16:04:23;;;;;;;24.33;10.00;;;14.90;51.50;;;;;;5048269;28;20202;-74
2022/03/22 16:06:49;;;;;;;12.57;7.87;;;14.90;51.90;;;;;;5069713;28;20197;-74
2022/03/22 16:09:19;;;;;;;20.57;8.20;;;14.90;52.70;;;;;;5057364;28;20230;-72
2022/03/22 16:11:47;;;;;;;14.60;8.37;;;14.90;53.00;;;;;;5073430;28;20429;-72
2022/03/22 16:14:14;;;;;;;10.57;7.87;;;14.80;55.00;;;;;;5072514;28;20864;-71
2022/03/22 16:16:41;;;;;;;15.07;8.50;;;14.70;53.90;;;;;;5072603;28;20410;-73
2022/03/22 16:19:07;;;;;;;13.57;8.07;;;14.70;55.00;;;;;;5071779;28;21030;-72
2022/03/22 16:21:33;;;;;;;13.90;8.80;;;14.60;55.70;;;;;;5072464;28;20433;-72
2022/03/22 16:23:59;;;;;;;11.90;8.20;;;14.60;55.20;;;;;;5071986;28;20885;-72
2022/03/22 16:26:26;;;;;;;12.33;8.70;;;14.20;56.50;;;;;;5072021;28;20197;-72
2022/03/22 16:28:52;;;;;;;10.87;8.07;;;14.00;58.20;;;;;;5054291;28;20409;-72
2022/03/22 16:31:18;;;;;;;10.93;8.03;;;13.70;60.20;;;;;;5071502;28;20472;-72
2022/03/22 16:36:47;;;;;;;14.20;8.70;;;13.00;60.80;;;;;;5070391;28;20424;-74
2022/03/22 16:39:26;;;;;;;12.27;9.00;;;12.50;61.40;;;;;;5070062;28;20494;-71
2022/03/22 16:42:04;;;;;;;13.77;9.60;;;12.20;62.00;;;;;;5071188;28;20432;-72
2022/03/22 16:44:31;;;;;;;18.73;9.27;;;11.80;63.40;;;;;;5068558;28;20831;-72
2022/03/22 16:47:00;;;;;;;14.47;9.53;;;11.60;63.90;;;;;;5060080;28;20409;-75
2022/03/22 16:49:33;;;;;;;13.27;9.70;;;11.40;64.40;;;;;;5052384;28;20510;-72
2022/03/22 16:51:58;;;;;;;12.10;7.80;;;11.10;64.70;;;;;;5059269;28;20541;-72
2022/03/22 16:54:24;;;;;;;13.33;8.33;;;10.90;65.50;;;;;;5067998;28;20492;-72
2022/03/22 16:56:54;;;;;;;26.90;18.80;;;10.60;66.30;;;;;;5069618;28;20190;-73
2022/03/22 16:59:21;;;;;;;12.33;8.47;;;10.40;65.80;;;;;;5066944;28;20193;-74
2022/03/22 17:01:47;;;;;;;12.40;8.57;;;10.30;66.80;;;;;;5043740;28;20499;-75
2022/03/22 17:04:13;;;;;;;11.40;8.63;;;10.00;68.00;;;;;;5056828;28;20547;-72
2022/03/22 17:06:39;;;;;;;11.93;8.10;;;9.80;68.40;;;;;;5064023;28;20956;-74
2022/03/22 17:09:04;;;;;;;12.60;8.77;;;9.70;69.20;;;;;;5071591;28;20175;-73
2022/03/22 17:11:31;;;;;;;20.80;8.87;;;9.50;69.80;;;;;;5053839;28;20226;-74
2022/03/22 17:13:57;;;;;;;13.43;8.30;;;9.30;69.40;;;;;;5068971;28;20631;-75
2022/03/22 17:16:22;;;;;;;13.40;8.47;;;9.20;70.20;;;;;;5069316;28;20416;-74
2022/03/22 17:18:50;;;;;;;12.50;9.17;;;9.00;71.40;;;;;;5071508;28;20179;-74
2022/03/22 17:21:16;;;;;;;25.20;16.40;;;8.90;71.70;;;;;;5070298;28;20931;-74
2022/03/22 17:23:43;;;;;;;21.30;14.67;;;9.00;70.60;;;;;;5071756;28;20408;-74
2022/03/22 17:26:18;;;;;;;20.20;14.10;;;8.90;71.20;;;;;;5053795;28;20181;-76
2022/03/22 17:28:47;;;;;;;22.47;13.20;;;8.80;71.20;;;;;;5071267;28;20408;-74
2022/03/22 17:31:14;;;;;;;18.67;15.20;;;8.70;72.20;;;;;;5072369;28;20799;-75
2022/03/22 17:33:40;;;;;;;14.93;9.70;;;8.60;72.50;;;;;;5070502;28;20777;-76
2022/03/22 17:36:06;;;;;;;13.47;7.37;;;8.40;71.80;;;;;;5064355;28;20456;-76
2022/03/22 17:38:32;;;;;;;21.20;9.70;;;8.20;72.90;;;;;;5053792;28;20537;-75
2022/03/22 17:40:57;;;;;;;21.33;11.73;;;8.20;71.50;;;;;;5073390;28;20441;-75
2022/03/22 17:43:23;;;;;;;26.07;9.53;;;8.20;72.40;;;;;;5071388;28;20187;-75
2022/03/22 17:45:49;;;;;;;16.40;7.40;;;7.90;73.20;;;;;;5075075;28;20521;-73
2022/03/22 17:48:14;;;;;;;18.10;7.93;;;7.70;74.50;;;;;;5072085;28;20163;-74
2022/03/22 17:50:40;;;;;;;12.93;8.50;;;7.40;75.80;;;;;;5055214;28;20203;-74
2022/03/22 17:53:06;;;;;;;12.90;8.33;;;7.30;74.20;;;;;;5061093;28;20243;-74
2022/03/22 17:55:31;;;;;;;19.07;8.73;;;7.10;75.00;;;;;;5074230;28;20528;-73
2022/03/22 17:57:57;;;;;;;14.70;9.70;;;7.00;76.80;;;;;;5080821;28;20656;-74
2022/03/22 18:00:23;;;;;;;14.90;10.13;;;6.80;78.30;;;;;;5086225;28;20249;-73
2022/03/22 18:02:48;;;;;;;33.80;21.97;;;6.60;78.30;;;;;;5063681;28;20163;-73